Time;durP1;ratioP1;P1;durP2;ratioP2;P2;SDS_P1;SDS_P2;PMS_P1;PMS_P2;Temp;Humidity;BMP_temperature;BMP_pressure;BME280_temperature;BME280_humidity;BME280_pressure;Samples;Min_cycle;Max_cycle;Signal;HPM_P1;HPM_P2
2023/06/11 00:01:54;;;;;;;3.60;1.70;;;19.60;65.10;;;;;;4991606;28;20306;-66
2023/06/11 00:04:24;;;;;;;1.52;1.42;;;19.60;65.20;;;;;;4997248;28;20207;-67
2023/06/11 00:06:53;;;;;;;2.45;1.75;;;19.60;65.30;;;;;;4991053;28;20200;-67
2023/06/11 00:09:20;;;;;;;3.72;1.77;;;19.60;65.40;;;;;;4980609;28;20192;-67
2023/06/11 00:11:47;;;;;;;1.88;1.75;;;19.50;65.30;;;;;;5004438;28;20195;-65
2023/06/11 00:14:14;;;;;;;2.10;1.90;;;19.50;65.50;;;;;;4969751;28;20221;-66
2023/06/11 00:16:43;;;;;;;1.52;1.40;;;19.50;65.60;;;;;;4990936;28;20254;-66
2023/06/11 00:19:11;;;;;;;1.60;1.50;;;19.50;65.80;;;;;;4998087;28;20271;-67
2023/06/11 00:21:43;;;;;;;1.20;1.20;;;19.50;66.00;;;;;;4995615;28;20302;-66
2023/06/11 00:24:11;;;;;;;2.03;1.20;;;19.50;66.10;;;;;;4964848;28;20209;-67
2023/06/11 00:26:38;;;;;;;1.67;1.45;;;19.60;66.30;;;;;;4988096;28;20204;-66
2023/06/11 00:29:05;;;;;;;1.65;1.40;;;19.50;66.20;;;;;;4992203;28;20206;-67
2023/06/11 00:31:32;;;;;;;1.25;1.13;;;19.50;66.30;;;;;;4992710;28;20192;-66
2023/06/11 00:34:01;;;;;;;1.77;1.52;;;19.50;67.10;;;;;;4985741;28;20668;-67
2023/06/11 00:36:29;;;;;;;1.20;1.10;;;19.50;66.50;;;;;;4989508;28;20207;-67
2023/06/11 00:38:56;;;;;;;3.25;1.50;;;19.50;66.50;;;;;;4984511;28;20716;-66
2023/06/11 00:41:25;;;;;;;2.17;1.42;;;19.50;66.60;;;;;;4991229;28;20216;-67
2023/06/11 00:43:54;;;;;;;2.20;1.67;;;19.50;66.60;;;;;;4989942;28;20241;-67
2023/06/11 00:46:22;;;;;;;2.05;1.27;;;19.50;66.60;;;;;;4986480;28;20313;-65
2023/06/11 00:48:50;;;;;;;1.40;1.30;;;19.50;66.60;;;;;;4990142;28;20565;-66
2023/06/11 00:51:21;;;;;;;1.65;1.17;;;19.50;66.70;;;;;;4979268;28;20195;-66
2023/06/11 00:53:48;;;;;;;1.67;1.58;;;19.50;67.40;;;;;;4994053;28;20309;-67
2023/06/11 00:56:17;;;;;;;1.90;1.30;;;19.50;66.60;;;;;;4973810;28;20677;-67
2023/06/11 00:58:45;;;;;;;1.77;1.58;;;19.50;66.60;;;;;;4990816;28;20226;-66
2023/06/11 01:01:17;;;;;;;2.05;1.30;;;19.50;66.60;;;;;;4984234;28;20208;-66
2023/06/11 01:03:44;;;;;;;3.75;1.73;;;19.50;66.70;;;;;;4987113;28;20215;-67
2023/06/11 01:06:17;;;;;;;3.03;1.58;;;19.40;66.60;;;;;;4975026;28;20204;-65
2023/06/11 01:08:52;;;;;;;3.80;2.00;;;19.40;66.70;;;;;;4999256;28;20196;-65
2023/06/11 01:11:22;;;;;;;2.58;1.63;;;19.30;66.70;;;;;;4986720;28;20216;-64
2023/06/11 01:13:51;;;;;;;2.33;1.60;;;19.30;67.50;;;;;;4982481;28;20239;-66
2023/06/11 01:16:25;;;;;;;2.35;1.58;;;19.30;66.80;;;;;;4975046;28;20208;-66
2023/06/11 01:19:03;;;;;;;2.72;1.40;;;19.30;66.90;;;;;;4988324;28;20221;-66
2023/06/11 01:21:40;;;;;;;1.50;1.35;;;19.20;66.90;;;;;;4984815;28;20747;-67
2023/06/11 01:24:18;;;;;;;1.52;1.42;;;19.20;67.00;;;;;;4974608;28;20207;-67
2023/06/11 01:27:08;;;;;;;1.27;1.17;;;19.30;67.20;;;;;;4976136;28;20239;-65
2023/06/11 01:29:37;;;;;;;0.82;0.82;;;19.20;67.20;;;;;;4977679;28;20577;-66
2023/06/11 01:32:06;;;;;;;1.15;1.15;;;19.20;67.20;;;;;;4988019;28;20282;-66
2023/06/11 01:34:35;;;;;;;1.30;1.27;;;19.20;67.20;;;;;;4966079;28;20301;-67
2023/06/11 01:37:04;;;;;;;1.40;1.20;;;19.20;67.10;;;;;;4978651;28;20215;-67
2023/06/11 01:39:31;;;;;;;1.00;1.00;;;19.20;67.10;;;;;;4969178;28;20200;-67
2023/06/11 01:42:06;;;;;;;0.90;0.90;;;19.20;67.10;;;;;;4970422;28;20219;-67
2023/06/11 01:44:33;;;;;;;3.55;1.58;;;19.10;66.90;;;;;;4971508;28;20207;-67
2023/06/11 01:47:02;;;;;;;1.90;1.70;;;19.20;66.80;;;;;;4964362;28;20216;-67
2023/06/11 01:49:29;;;;;;;1.70;1.60;;;19.20;66.70;;;;;;4986757;28;20661;-66
2023/06/11 01:51:56;;;;;;;1.50;1.40;;;19.20;66.60;;;;;;4974272;28;20199;-67
2023/06/11 01:54:23;;;;;;;0.95;0.95;;;19.20;66.60;;;;;;4982941;28;20575;-66
2023/06/11 01:56:51;;;;;;;0.90;0.90;;;19.10;66.60;;;;;;4992388;28;20669;-67
2023/06/11 01:59:20;;;;;;;0.98;0.98;;;19.10;66.70;;;;;;4970579;28;20290;-66
2023/06/11 02:01:53;;;;;;;2.40;1.23;;;19.10;66.70;;;;;;4964649;28;20212;-67
2023/06/11 02:04:22;;;;;;;1.58;1.48;;;19.10;66.60;;;;;;4965399;28;20191;-66
2023/06/11 02:06:50;;;;;;;4.28;1.85;;;19.00;67.10;;;;;;4994575;28;20196;-67
2023/06/11 02:09:17;;;;;;;2.55;1.73;;;19.00;66.20;;;;;;4976476;28;20214;-66
2023/06/11 02:11:44;;;;;;;2.28;1.60;;;19.00;66.20;;;;;;5003193;28;20202;-66
2023/06/11 02:14:11;;;;;;;1.50;1.20;;;19.00;66.20;;;;;;4993313;28;20269;-67
2023/06/11 02:16:38;;;;;;;2.60;1.00;;;19.00;66.30;;;;;;4962024;28;20662;-67
2023/06/11 02:19:05;;;;;;;1.38;1.25;;;18.90;66.30;;;;;;4997731;28;20196;-67
2023/06/11 02:21:34;;;;;;;1.75;1.60;;;18.90;66.30;;;;;;4994301;28;20262;-67
2023/06/11 02:24:01;;;;;;;2.17;1.55;;;18.90;66.40;;;;;;4992986;28;20207;-66
2023/06/11 02:26:28;;;;;;;1.42;1.33;;;18.90;66.40;;;;;;4992259;28;20271;-66
2023/06/11 02:28:56;;;;;;;1.02;1.02;;;18.90;66.50;;;;;;4959597;28;20208;-67
2023/06/11 02:31:23;;;;;;;1.25;1.15;;;18.80;66.50;;;;;;4993339;28;20688;-68
2023/06/11 02:33:50;;;;;;;0.93;0.93;;;18.90;66.70;;;;;;4980797;28;20695;-67
2023/06/11 02:36:17;;;;;;;1.30;1.25;;;18.80;66.60;;;;;;4994314;28;20254;-67
2023/06/11 02:38:46;;;;;;;1.88;1.25;;;18.80;66.70;;;;;;4988683;28;20729;-66
2023/06/11 02:41:13;;;;;;;1.20;1.10;;;18.80;66.80;;;;;;4965344;28;20248;-66
2023/06/11 02:43:40;;;;;;;1.15;1.05;;;18.80;66.80;;;;;;4978754;28;20218;-67
2023/06/11 02:46:07;;;;;;;1.05;1.05;;;18.80;66.90;;;;;;4981986;28;20204;-67
2023/06/11 02:48:34;;;;;;;2.15;1.20;;;18.80;66.90;;;;;;4978787;28;20293;-67
2023/06/11 02:51:01;;;;;;;1.20;1.10;;;18.80;66.90;;;;;;4990752;28;20192;-67
2023/06/11 02:53:28;;;;;;;1.42;1.30;;;18.90;66.90;;;;;;4980274;28;20204;-67
2023/06/11 02:55:57;;;;;;;1.10;1.10;;;18.90;67.00;;;;;;4982215;28;20717;-66
2023/06/11 02:58:24;;;;;;;1.30;1.13;;;18.90;67.00;;;;;;4975830;28;20196;-67
2023/06/11 03:00:51;;;;;;;0.90;0.90;;;18.90;66.90;;;;;;4963551;28;20224;-67
2023/06/11 03:03:18;;;;;;;0.95;0.95;;;18.90;67.00;;;;;;4986869;28;20205;-67
2023/06/11 03:05:48;;;;;;;0.90;0.90;;;18.90;67.10;;;;;;4970006;28;20691;-67
2023/06/11 03:08:15;;;;;;;1.13;1.02;;;18.80;67.00;;;;;;4992937;28;20217;-67
2023/06/11 03:10:43;;;;;;;3.60;1.20;;;18.80;67.10;;;;;;4996081;28;20200;-66
2023/06/11 03:13:11;;;;;;;1.50;1.40;;;18.80;67.10;;;;;;4973806;28;20243;-66
2023/06/11 03:15:39;;;;;;;0.95;0.95;;;18.80;66.90;;;;;;4968183;28;20592;-66
2023/06/11 03:18:06;;;;;;;1.13;1.13;;;18.80;66.90;;;;;;4974658;28;20223;-67
2023/06/11 03:20:36;;;;;;;1.20;1.05;;;18.80;66.90;;;;;;4967108;28;20299;-67
2023/06/11 03:23:03;;;;;;;0.98;0.98;;;18.80;67.00;;;;;;4996311;28;20215;-66
2023/06/11 03:25:30;;;;;;;0.98;0.95;;;18.80;67.10;;;;;;4996031;28;20200;-67
2023/06/11 03:27:57;;;;;;;2.17;0.88;;;18.80;67.10;;;;;;4984240;28;20200;-67
2023/06/11 03:30:26;;;;;;;0.90;0.90;;;18.80;67.20;;;;;;4975738;28;20674;-67
2023/06/11 03:32:53;;;;;;;1.25;1.00;;;18.80;67.30;;;;;;4992533;28;20716;-67
2023/06/11 03:35:20;;;;;;;1.10;1.00;;;18.80;67.30;;;;;;4976008;28;20650;-67
2023/06/11 03:37:48;;;;;;;0.90;0.90;;;18.80;67.20;;;;;;4976181;28;20262;-67
2023/06/11 03:40:20;;;;;;;1.00;1.00;;;18.80;67.20;;;;;;4975203;28;20208;-65
2023/06/11 03:42:49;;;;;;;1.00;1.00;;;18.80;67.10;;;;;;4975627;28;20227;-66
2023/06/11 03:45:16;;;;;;;1.10;1.00;;;18.80;67.10;;;;;;4992408;28;20223;-66
2023/06/11 03:47:45;;;;;;;1.88;1.10;;;18.80;67.10;;;;;;4974230;28;20558;-66
2023/06/11 03:50:12;;;;;;;1.20;1.10;;;18.80;67.10;;;;;;4973769;28;20196;-66
2023/06/11 03:52:41;;;;;;;1.67;1.08;;;18.80;66.90;;;;;;4974461;28;20208;-67
2023/06/11 03:55:09;;;;;;;1.20;1.20;;;18.80;67.00;;;;;;4967510;28;20223;-67
2023/06/11 03:57:37;;;;;;;2.72;1.30;;;18.80;67.10;;;;;;4992841;28;20665;-66
2023/06/11 04:00:05;;;;;;;1.80;1.20;;;18.80;67.10;;;;;;4986095;28;20223;-66
2023/06/11 04:02:41;;;;;;;1.23;1.13;;;18.80;67.20;;;;;;4991617;28;20218;-66
2023/06/11 04:05:12;;;;;;;1.20;1.20;;;18.80;67.20;;;;;;4986252;28;20220;-67
2023/06/11 04:07:40;;;;;;;1.10;1.00;;;18.80;67.30;;;;;;4970755;28;20207;-66
2023/06/11 04:10:09;;;;;;;1.17;1.08;;;18.80;67.40;;;;;;4980604;28;20228;-66
2023/06/11 04:12:36;;;;;;;1.13;1.02;;;18.80;67.60;;;;;;4973116;28;20610;-68
2023/06/11 04:15:03;;;;;;;1.77;1.50;;;18.80;67.70;;;;;;4987119;28;20203;-66
2023/06/11 04:17:31;;;;;;;2.33;1.27;;;18.80;67.70;;;;;;4996400;28;20204;-66
2023/06/11 04:19:59;;;;;;;1.95;1.23;;;18.90;68.00;;;;;;4987739;28;20192;-65
2023/06/11 04:22:27;;;;;;;1.00;0.90;;;18.90;68.00;;;;;;4961227;28;20219;-67
2023/06/11 04:24:55;;;;;;;1.63;1.40;;;18.90;68.10;;;;;;4961097;28;20211;-66
2023/06/11 04:27:22;;;;;;;2.92;1.20;;;18.90;68.10;;;;;;4967330;28;20291;-67
2023/06/11 04:29:52;;;;;;;0.90;0.90;;;18.90;69.00;;;;;;4970402;28;20196;-66
2023/06/11 04:32:21;;;;;;;1.83;0.90;;;18.90;68.10;;;;;;4955283;28;20204;-67
2023/06/11 04:34:49;;;;;;;1.60;1.50;;;18.90;68.60;;;;;;4970802;28;20204;-67
2023/06/11 04:37:17;;;;;;;0.98;0.98;;;19.00;68.40;;;;;;4991298;28;20311;-66
2023/06/11 04:39:47;;;;;;;1.30;1.20;;;19.00;68.50;;;;;;4970957;28;20242;-67
2023/06/11 04:42:16;;;;;;;1.08;1.08;;;19.00;68.50;;;;;;4975063;28;20297;-67
2023/06/11 04:44:47;;;;;;;1.25;1.15;;;19.00;68.50;;;;;;4973728;28;20285;-68
2023/06/11 04:47:15;;;;;;;0.98;0.90;;;19.10;68.70;;;;;;4973891;28;20211;-67
2023/06/11 04:49:44;;;;;;;0.90;0.90;;;19.10;68.70;;;;;;4991459;28;20207;-67
2023/06/11 04:52:11;;;;;;;2.60;1.00;;;19.10;68.70;;;;;;4962728;28;20232;-67
2023/06/11 04:54:41;;;;;;;1.30;1.20;;;19.20;68.80;;;;;;4985745;28;20236;-67
2023/06/11 04:57:10;;;;;;;1.00;1.00;;;19.20;68.70;;;;;;4967405;28;20554;-66
2023/06/11 04:59:37;;;;;;;1.90;1.15;;;19.20;68.60;;;;;;4970445;28;20195;-67
2023/06/11 05:02:05;;;;;;;1.23;1.20;;;19.20;68.70;;;;;;4973443;28;20238;-67
2023/06/11 05:04:32;;;;;;;1.70;1.30;;;19.10;68.60;;;;;;4971680;28;20200;-66
2023/06/11 05:07:00;;;;;;;1.05;1.05;;;19.20;68.80;;;;;;4985103;28;20692;-67
2023/06/11 05:09:28;;;;;;;0.90;0.90;;;19.20;68.80;;;;;;4957214;28;20209;-67
2023/06/11 05:11:55;;;;;;;1.30;1.20;;;19.20;68.90;;;;;;4964895;28;20197;-66
2023/06/11 05:14:24;;;;;;;1.40;1.10;;;19.30;69.00;;;;;;4963410;28;20212;-67
2023/06/11 05:16:52;;;;;;;2.00;1.15;;;19.30;69.00;;;;;;4963404;28;20262;-66
2023/06/11 05:19:20;;;;;;;1.70;1.20;;;19.40;69.10;;;;;;4971211;28;20196;-67
2023/06/11 05:21:48;;;;;;;1.40;1.20;;;19.40;69.10;;;;;;4980388;28;20227;-67
2023/06/11 05:24:19;;;;;;;3.60;1.65;;;19.40;69.10;;;;;;4970694;28;20219;-67
2023/06/11 05:26:48;;;;;;;1.20;1.10;;;19.40;69.10;;;;;;4970865;28;20289;-67
2023/06/11 05:29:15;;;;;;;1.50;1.40;;;19.40;69.10;;;;;;5004892;28;20286;-66
2023/06/11 05:31:43;;;;;;;1.83;1.60;;;19.40;69.00;;;;;;4980794;28;20200;-66
2023/06/11 05:34:11;;;;;;;1.42;1.33;;;19.40;69.00;;;;;;4985945;28;20211;-66
2023/06/11 05:36:38;;;;;;;2.70;1.30;;;19.40;69.00;;;;;;4969455;28;20640;-66
2023/06/11 05:39:06;;;;;;;1.17;1.13;;;19.40;68.90;;;;;;4972399;28;20239;-67
2023/06/11 05:41:34;;;;;;;1.60;1.50;;;19.40;68.80;;;;;;4977605;28;20211;-67
2023/06/11 05:44:02;;;;;;;1.60;1.50;;;19.50;69.00;;;;;;4960017;28;20299;-67
2023/06/11 05:46:32;;;;;;;1.02;1.02;;;19.50;69.00;;;;;;4969215;28;20204;-66
2023/06/11 05:49:01;;;;;;;1.75;1.42;;;19.50;69.20;;;;;;4971888;28;20249;-66
2023/06/11 05:51:28;;;;;;;2.15;1.20;;;19.50;69.20;;;;;;4982607;28;20752;-66
2023/06/11 05:53:55;;;;;;;1.08;1.08;;;19.50;69.20;;;;;;4963329;28;20568;-66
2023/06/11 05:56:22;;;;;;;1.48;0.82;;;19.60;69.30;;;;;;4971840;28;20205;-66
2023/06/11 05:58:50;;;;;;;6.75;1.23;;;19.60;69.30;;;;;;4971932;28;20194;-66
2023/06/11 06:01:17;;;;;;;1.20;1.20;;;19.60;69.30;;;;;;4941776;28;20204;-66
2023/06/11 06:03:45;;;;;;;1.50;1.00;;;19.60;69.20;;;;;;4943898;29;20225;-66
2023/06/11 06:06:14;;;;;;;1.15;1.05;;;19.60;69.20;;;;;;4963999;28;20200;-66
2023/06/11 06:08:42;;;;;;;0.85;0.85;;;19.60;69.30;;;;;;4950456;28;20228;-66
2023/06/11 06:11:09;;;;;;;1.73;0.90;;;19.70;69.30;;;;;;4951476;28;20259;-66
2023/06/11 06:13:36;;;;;;;1.70;1.25;;;19.70;69.10;;;;;;4954552;28;20199;-67
2023/06/11 06:16:07;;;;;;;4.47;1.52;;;19.80;68.90;;;;;;4948063;28;20209;-66
2023/06/11 06:18:37;;;;;;;2.03;1.17;;;19.80;68.60;;;;;;4953337;28;20200;-67
2023/06/11 06:21:04;;;;;;;3.40;1.30;;;19.80;68.30;;;;;;4952124;28;20212;-67
2023/06/11 06:23:33;;;;;;;1.20;1.10;;;19.90;68.30;;;;;;4960106;28;20221;-67
2023/06/11 06:26:07;;;;;;;17.08;1.00;;;19.90;68.40;;;;;;4942440;28;20291;-66
2023/06/11 06:28:35;;;;;;;3.78;1.58;;;19.90;68.50;;;;;;4953996;28;20197;-66
2023/06/11 06:31:07;;;;;;;1.27;1.17;;;19.90;68.40;;;;;;4940358;29;20777;-66
2023/06/11 06:33:37;;;;;;;2.20;1.55;;;19.90;68.40;;;;;;4954315;28;20209;-67
2023/06/11 06:36:06;;;;;;;1.30;1.20;;;19.90;68.60;;;;;;4938458;28;20225;-67
2023/06/11 06:38:35;;;;;;;1.48;1.30;;;19.90;68.70;;;;;;4962529;28;20222;-68
2023/06/11 06:41:03;;;;;;;1.25;1.13;;;19.90;68.80;;;;;;4954428;28;20208;-67
2023/06/11 06:43:30;;;;;;;2.67;1.00;;;20.00;68.80;;;;;;4950546;28;20248;-67
2023/06/11 06:46:00;;;;;;;1.17;1.17;;;20.00;68.60;;;;;;4988525;28;20291;-67
2023/06/11 06:48:32;;;;;;;1.00;1.00;;;20.10;68.80;;;;;;4951887;28;20570;-66
2023/06/11 06:51:00;;;;;;;1.48;1.08;;;20.10;68.80;;;;;;4960215;28;20193;-66
2023/06/11 06:53:27;;;;;;;1.40;1.30;;;20.20;69.10;;;;;;4970982;28;20193;-67
2023/06/11 06:55:58;;;;;;;2.35;1.13;;;20.20;69.20;;;;;;4982920;28;20724;-67
2023/06/11 06:58:26;;;;;;;1.05;1.05;;;20.30;69.30;;;;;;4971396;28;20302;-67
2023/06/11 07:00:53;;;;;;;2.35;1.27;;;20.30;69.20;;;;;;4981431;28;20215;-68
2023/06/11 07:03:21;;;;;;;1.50;1.40;;;20.30;69.20;;;;;;4973562;28;20307;-67
2023/06/11 07:05:49;;;;;;;1.40;1.30;;;20.40;69.10;;;;;;4973119;28;20242;-67
2023/06/11 07:08:16;;;;;;;1.30;1.20;;;20.40;69.00;;;;;;4973846;28;20686;-67
2023/06/11 07:10:50;;;;;;;0.90;0.90;;;20.40;69.10;;;;;;4963511;28;20227;-66
2023/06/11 07:13:23;;;;;;;2.17;1.00;;;20.40;69.10;;;;;;4972297;28;20234;-66
2023/06/11 07:15:52;;;;;;;1.77;1.35;;;20.40;69.10;;;;;;4992611;28;20200;-66
2023/06/11 07:18:22;;;;;;;0.88;0.88;;;20.50;69.40;;;;;;4966244;28;20204;-67
2023/06/11 07:20:49;;;;;;;1.50;1.13;;;20.50;69.00;;;;;;4958143;28;20217;-66
2023/06/11 07:23:17;;;;;;;1.05;1.05;;;20.50;68.90;;;;;;4970134;28;20229;-66
2023/06/11 07:25:44;;;;;;;1.00;1.00;;;20.60;68.80;;;;;;4961673;28;20209;-67
2023/06/11 07:28:13;;;;;;;1.00;1.00;;;20.60;68.70;;;;;;4970696;28;20283;-67
2023/06/11 07:30:42;;;;;;;1.60;1.50;;;20.70;68.80;;;;;;4969790;28;20201;-67
2023/06/11 07:33:10;;;;;;;2.15;1.40;;;20.70;68.70;;;;;;4966106;28;20203;-67
2023/06/11 07:35:37;;;;;;;1.58;0.90;;;20.70;68.60;;;;;;4973950;28;20204;-67
2023/06/11 07:38:04;;;;;;;1.25;1.17;;;20.80;68.60;;;;;;4973325;28;20204;-67
2023/06/11 07:40:31;;;;;;;1.45;1.35;;;20.80;68.50;;;;;;4961054;28;20230;-66
2023/06/11 07:42:58;;;;;;;1.33;1.23;;;20.90;68.40;;;;;;4964644;28;20303;-67
2023/06/11 07:45:30;;;;;;;1.10;1.10;;;20.90;68.40;;;;;;4961449;28;20200;-66
2023/06/11 07:47:58;;;;;;;1.23;1.20;;;21.00;68.50;;;;;;4988930;28;20215;-67
2023/06/11 07:50:26;;;;;;;4.22;2.22;;;21.00;68.00;;;;;;4975286;28;20547;-66
2023/06/11 07:52:54;;;;;;;1.40;1.30;;;21.10;67.80;;;;;;4991482;28;20226;-66
2023/06/11 07:55:27;;;;;;;1.45;1.38;;;21.10;67.50;;;;;;4984897;28;20239;-66
2023/06/11 07:57:54;;;;;;;1.55;1.35;;;21.20;67.00;;;;;;4985384;28;20211;-67
2023/06/11 08:00:24;;;;;;;1.40;1.30;;;21.20;66.50;;;;;;4972814;28;20211;-66
2023/06/11 08:02:51;;;;;;;1.58;1.25;;;21.20;66.30;;;;;;4992138;28;20703;-66
2023/06/11 08:05:19;;;;;;;0.93;0.93;;;21.20;66.50;;;;;;4992960;28;20199;-66
2023/06/11 08:07:48;;;;;;;1.10;1.10;;;21.30;66.70;;;;;;4988323;28;20196;-67
2023/06/11 08:10:15;;;;;;;1.33;1.23;;;21.30;66.70;;;;;;4990209;28;20200;-66
2023/06/11 08:12:43;;;;;;;1.70;1.25;;;21.40;66.30;;;;;;4986276;28;20212;-67
2023/06/11 08:15:11;;;;;;;1.55;1.10;;;21.40;66.20;;;;;;5000711;28;20214;-67
2023/06/11 08:17:39;;;;;;;3.35;1.20;;;21.50;66.50;;;;;;4987723;28;20220;-67
2023/06/11 08:20:09;;;;;;;2.70;1.30;;;21.50;66.40;;;;;;4986606;28;20544;-67
2023/06/11 08:22:39;;;;;;;1.60;1.40;;;21.50;66.10;;;;;;4980077;28;20215;-66
2023/06/11 08:25:08;;;;;;;1.40;1.30;;;21.60;66.40;;;;;;4992122;28;20283;-66
2023/06/11 08:27:35;;;;;;;5.38;1.65;;;21.60;66.60;;;;;;4989297;28;20200;-67
2023/06/11 08:30:02;;;;;;;2.22;1.25;;;21.70;66.40;;;;;;4990190;28;20259;-66
2023/06/11 08:32:29;;;;;;;1.25;1.15;;;21.70;66.30;;;;;;4983057;28;20204;-66
2023/06/11 08:34:56;;;;;;;1.38;1.13;;;21.70;66.20;;;;;;4980138;28;20243;-67
2023/06/11 08:37:23;;;;;;;1.45;1.30;;;21.80;66.60;;;;;;4978531;28;20744;-67
2023/06/11 08:39:52;;;;;;;2.25;1.50;;;21.90;66.70;;;;;;4992537;28;20223;-67
2023/06/11 08:42:19;;;;;;;1.50;1.40;;;22.00;66.40;;;;;;4978336;28;20203;-66
2023/06/11 08:44:46;;;;;;;2.50;1.83;;;22.00;66.30;;;;;;4980961;28;20673;-65
2023/06/11 08:47:15;;;;;;;1.50;1.40;;;22.00;66.10;;;;;;4986195;28;20207;-66
2023/06/11 08:49:45;;;;;;;4.32;1.50;;;22.10;66.00;;;;;;4962952;28;20292;-67
2023/06/11 08:52:14;;;;;;;1.30;1.20;;;22.10;67.00;;;;;;4977657;28;20197;-66
2023/06/11 08:54:41;;;;;;;1.50;1.40;;;22.20;66.40;;;;;;4989494;28;20224;-66
2023/06/11 08:57:10;;;;;;;1.30;1.30;;;22.20;66.40;;;;;;4981956;28;20287;-66
2023/06/11 08:59:37;;;;;;;1.50;1.40;;;22.20;66.50;;;;;;4974221;28;20256;-67
2023/06/11 09:02:04;;;;;;;1.50;1.40;;;22.30;66.60;;;;;;4991192;28;20230;-67
2023/06/11 09:04:32;;;;;;;2.28;1.63;;;22.40;66.60;;;;;;4978161;28;20687;-66
2023/06/11 09:07:00;;;;;;;1.65;1.55;;;22.40;66.60;;;;;;4991549;28;20282;-65
2023/06/11 09:09:27;;;;;;;2.90;1.73;;;22.40;66.60;;;;;;4991606;28;20274;-66
2023/06/11 09:11:55;;;;;;;2.22;1.40;;;22.70;66.90;;;;;;4989600;28;20199;-66
2023/06/11 09:14:23;;;;;;;1.27;1.27;;;22.60;67.10;;;;;;4994898;28;20254;-66
2023/06/11 09:16:50;;;;;;;1.45;1.35;;;22.60;67.10;;;;;;4989048;28;20286;-66
2023/06/11 09:19:19;;;;;;;1.40;1.30;;;22.60;66.90;;;;;;4993459;28;20207;-66
2023/06/11 09:21:50;;;;;;;2.30;1.40;;;22.60;66.90;;;;;;4990419;28;20203;-66
2023/06/11 09:24:19;;;;;;;1.25;1.15;;;22.70;67.00;;;;;;4960346;28;20227;-67
2023/06/11 09:26:54;;;;;;;1.20;1.20;;;22.80;67.20;;;;;;4987735;28;20279;-66
2023/06/11 09:29:22;;;;;;;1.27;1.27;;;22.80;67.30;;;;;;4977738;28;20285;-66
2023/06/11 09:31:50;;;;;;;1.30;1.20;;;22.90;67.40;;;;;;4984139;28;20224;-66
2023/06/11 09:34:21;;;;;;;1.60;1.50;;;22.90;67.50;;;;;;4990232;28;20266;-67
2023/06/11 09:36:49;;;;;;;3.33;1.55;;;23.00;67.40;;;;;;4978613;28;20567;-67
2023/06/11 09:39:17;;;;;;;1.48;1.33;;;23.00;67.20;;;;;;4991138;28;20200;-66
2023/06/11 09:41:51;;;;;;;1.23;1.17;;;23.00;67.00;;;;;;4991559;28;20199;-65
2023/06/11 09:44:18;;;;;;;2.20;1.48;;;23.10;67.00;;;;;;4992339;28;20212;-65
2023/06/11 09:46:48;;;;;;;1.80;1.40;;;23.10;66.80;;;;;;4976738;28;20279;-66
2023/06/11 09:49:16;;;;;;;1.30;1.20;;;23.10;66.60;;;;;;4986161;28;20188;-66
2023/06/11 09:51:44;;;;;;;1.33;1.27;;;23.10;66.40;;;;;;4992112;28;20243;-66
2023/06/11 09:54:12;;;;;;;3.63;1.77;;;23.20;66.30;;;;;;4991190;28;20235;-66
2023/06/11 09:56:40;;;;;;;3.22;2.00;;;23.20;66.40;;;;;;5008428;28;20199;-66
2023/06/11 09:59:07;;;;;;;4.00;2.10;;;23.20;66.10;;;;;;4994233;28;20215;-66
2023/06/11 10:01:35;;;;;;;5.30;1.60;;;23.30;65.80;;;;;;4978060;28;20232;-66
2023/06/11 10:04:04;;;;;;;2.05;1.63;;;23.30;65.70;;;;;;4994822;28;20216;-65
2023/06/11 10:06:35;;;;;;;1.42;1.33;;;23.30;66.60;;;;;;4987060;28;20204;-65
2023/06/11 10:09:08;;;;;;;1.55;1.45;;;23.50;67.40;;;;;;4980245;28;20213;-66
2023/06/11 10:11:38;;;;;;;5.15;1.63;;;23.50;67.40;;;;;;4993186;28;20188;-66
2023/06/11 10:14:11;;;;;;;2.42;1.65;;;23.60;69.00;;;;;;4988226;28;20589;-66
2023/06/11 10:16:38;;;;;;;1.48;1.38;;;23.80;68.20;;;;;;4994304;28;20284;-66
2023/06/11 10:19:11;;;;;;;1.45;1.35;;;23.80;67.00;;;;;;4988353;28;20564;-66
2023/06/11 10:21:42;;;;;;;2.58;1.42;;;23.90;66.20;;;;;;4995501;28;20196;-66
2023/06/11 10:24:21;;;;;;;3.25;1.50;;;24.00;65.60;;;;;;4994001;28;20196;-67
2023/06/11 10:27:08;;;;;;;1.30;1.10;;;24.00;65.20;;;;;;4990422;28;20309;-67
2023/06/11 10:29:39;;;;;;;1.48;1.38;;;24.00;64.90;;;;;;4994088;28;20223;-66
2023/06/11 10:32:15;;;;;;;2.20;2.05;;;24.10;64.90;;;;;;4979396;28;20201;-66
2023/06/11 10:34:45;;;;;;;4.13;3.83;;;24.10;64.60;;;;;;4999228;28;20210;-65
2023/06/11 10:37:12;;;;;;;5.55;5.07;;;24.10;64.20;;;;;;4997263;28;20216;-66
2023/06/11 10:39:51;;;;;;;10.82;7.45;;;24.20;64.10;;;;;;4961389;28;20203;-67
2023/06/11 10:42:24;;;;;;;8.50;7.70;;;24.20;63.90;;;;;;4991828;28;20600;-67
2023/06/11 10:44:52;;;;;;;8.10;7.30;;;24.20;63.60;;;;;;4991250;28;20230;-66
2023/06/11 10:47:19;;;;;;;9.18;8.27;;;24.20;63.10;;;;;;4996288;28;20203;-67
2023/06/11 10:49:47;;;;;;;8.15;7.35;;;24.20;63.20;;;;;;4992662;28;20684;-68
2023/06/11 10:52:15;;;;;;;9.68;5.30;;;24.20;63.20;;;;;;4993499;28;20261;-68
2023/06/11 10:54:43;;;;;;;10.10;5.75;;;24.20;62.40;;;;;;4980152;28;20232;-67
2023/06/11 10:57:11;;;;;;;6.25;4.30;;;24.20;62.10;;;;;;4995204;28;20191;-67
2023/06/11 10:59:39;;;;;;;4.25;3.95;;;24.30;62.00;;;;;;4995000;28;20279;-66
2023/06/11 11:02:12;;;;;;;3.88;3.47;;;24.30;61.90;;;;;;4998240;28;20224;-67
2023/06/11 11:04:51;;;;;;;4.97;2.85;;;24.30;61.20;;;;;;4991786;28;20303;-67
2023/06/11 11:07:18;;;;;;;2.78;2.40;;;24.30;61.10;;;;;;4983249;28;20188;-67
2023/06/11 11:09:45;;;;;;;2.55;2.15;;;24.40;60.80;;;;;;4998204;28;20196;-66
2023/06/11 11:12:13;;;;;;;1.83;1.73;;;24.40;60.40;;;;;;4985971;28;20551;-67
2023/06/11 11:14:40;;;;;;;1.63;1.52;;;24.40;59.90;;;;;;4985745;28;20554;-66
2023/06/11 11:17:08;;;;;;;1.50;1.40;;;24.40;59.90;;;;;;4998669;28;20577;-66
2023/06/11 11:19:36;;;;;;;2.88;1.40;;;24.40;59.60;;;;;;4984985;28;20942;-67
2023/06/11 11:22:05;;;;;;;1.27;1.27;;;24.50;59.50;;;;;;4966531;28;20212;-67
2023/06/11 11:24:35;;;;;;;1.20;0.95;;;24.50;59.30;;;;;;4979838;28;20205;-68
2023/06/11 11:27:02;;;;;;;2.83;0.98;;;24.50;59.20;;;;;;4989174;28;20203;-68
2023/06/11 11:29:30;;;;;;;1.20;1.10;;;24.40;58.90;;;;;;4976719;28;20220;-67
2023/06/11 11:31:57;;;;;;;7.90;1.75;;;24.40;58.60;;;;;;4992895;28;20258;-67
2023/06/11 11:34:24;;;;;;;13.23;2.80;;;24.40;59.10;;;;;;4975930;28;20204;-68
2023/06/11 11:36:54;;;;;;;7.80;2.53;;;24.40;58.40;;;;;;4980750;28;20561;-68
2023/06/11 11:39:23;;;;;;;3.95;1.70;;;24.50;58.20;;;;;;4983079;28;20231;-67
2023/06/11 11:41:51;;;;;;;1.10;1.10;;;24.50;57.70;;;;;;4970924;28;20196;-67
2023/06/11 11:44:19;;;;;;;1.52;1.42;;;24.50;57.80;;;;;;4985691;28;20219;-67
2023/06/11 11:46:47;;;;;;;1.73;1.42;;;24.50;57.90;;;;;;4986136;28;20279;-68
2023/06/11 11:49:17;;;;;;;1.10;1.10;;;23.90;57.40;;;;;;4989948;28;20196;-67
2023/06/11 12:47:40;;;;;;;1.00;1.00;;;24.30;54.10;;;;;;4404862;28;21399;-66
2023/06/11 12:50:08;;;;;;;1.33;1.23;;;24.30;53.60;;;;;;4954529;28;20217;-66
2023/06/11 12:52:35;;;;;;;1.00;1.00;;;24.30;53.60;;;;;;4958298;28;20710;-66
2023/06/11 12:55:03;;;;;;;4.90;1.50;;;24.40;53.70;;;;;;4948807;28;20201;-66
2023/06/11 12:57:30;;;;;;;2.70;1.13;;;24.40;53.50;;;;;;4954770;28;20205;-66
2023/06/11 12:59:57;;;;;;;1.20;1.20;;;24.40;53.70;;;;;;4952127;29;20231;-67
2023/06/11 13:02:25;;;;;;;1.52;1.20;;;24.30;53.50;;;;;;4952178;29;20197;-66
2023/06/11 13:04:54;;;;;;;1.42;1.33;;;24.30;53.30;;;;;;4961189;28;20334;-66
2023/06/11 13:07:21;;;;;;;1.10;1.10;;;24.30;52.90;;;;;;4939200;28;20216;-66
2023/06/11 13:09:49;;;;;;;0.80;0.80;;;24.30;53.00;;;;;;4949200;28;20196;-66
2023/06/11 13:12:17;;;;;;;1.02;1.02;;;24.40;53.30;;;;;;4954190;28;20228;-66
2023/06/11 13:14:44;;;;;;;2.70;1.00;;;24.40;53.50;;;;;;4956324;28;20198;-65
2023/06/11 13:17:11;;;;;;;2.05;1.00;;;24.50;53.70;;;;;;4957252;28;20316;-66
2023/06/11 13:19:38;;;;;;;1.27;1.17;;;24.50;53.80;;;;;;4942863;28;20205;-66
2023/06/11 13:22:09;;;;;;;0.90;0.90;;;24.50;53.90;;;;;;4957298;28;20251;-67
2023/06/11 13:24:36;;;;;;;2.53;1.02;;;24.50;53.70;;;;;;4961090;28;20569;-66
2023/06/11 13:27:04;;;;;;;0.82;0.82;;;24.50;53.70;;;;;;4956388;28;20209;-65
2023/06/11 13:29:31;;;;;;;0.90;0.90;;;24.50;53.70;;;;;;4955325;28;20201;-66
2023/06/11 13:31:58;;;;;;;1.15;1.15;;;24.50;53.80;;;;;;4947372;28;20197;-65
2023/06/11 13:34:25;;;;;;;1.40;1.33;;;24.40;53.70;;;;;;4953531;28;20555;-66
2023/06/11 13:36:55;;;;;;;1.33;1.27;;;24.40;53.60;;;;;;4953324;28;20204;-65
2023/06/11 13:39:24;;;;;;;6.22;1.30;;;24.40;53.40;;;;;;4952538;28;20622;-67
2023/06/11 13:41:52;;;;;;;0.93;0.93;;;24.40;53.30;;;;;;4949690;28;20280;-65
2023/06/11 13:44:19;;;;;;;1.20;1.10;;;24.40;53.50;;;;;;4933435;29;20213;-65
2023/06/11 13:46:46;;;;;;;0.90;0.90;;;24.40;53.70;;;;;;4952434;28;20272;-66
2023/06/11 13:49:13;;;;;;;1.48;1.10;;;24.40;53.80;;;;;;4951718;28;20236;-65